Time;durP1;ratioP1;P1;durP2;ratioP2;P2;SDS_P1;SDS_P2;PMS_P1;PMS_P2;Temp;Humidity;BMP_temperature;BMP_pressure;BME280_temperature;BME280_humidity;BME280_pressure;Samples;Min_cycle;Max_cycle;Signal;HPM_P1;HPM_P2
2022/05/27 00:00:05;;;;;;;8.25;2.97;;;;;;;16.69;73.57;101877.19;5019253;28;20046;-48
2022/05/27 00:02:53;;;;;;;8.82;2.60;;;;;;;16.71;73.62;101874.13;5039743;28;20448;-47
2022/05/27 00:05:40;;;;;;;7.20;2.53;;;;;;;16.71;73.55;101871.38;5019511;28;20058;-47
2022/05/27 00:08:28;;;;;;;12.20;3.10;;;;;;;16.72;73.86;101867.53;5015896;28;20049;-48
2022/05/27 00:11:16;;;;;;;8.52;3.15;;;;;;;16.70;73.66;101861.50;5025261;28;20037;-47
2022/05/27 00:14:04;;;;;;;8.80;2.58;;;;;;;16.66;73.80;101860.41;5029836;28;20057;-47
2022/05/27 00:16:52;;;;;;;7.35;2.53;;;;;;;16.61;74.32;101870.31;5017651;28;20042;-47
2022/05/27 00:19:39;;;;;;;7.45;2.60;;;;;;;16.59;74.31;101861.53;5015854;28;20452;-48
2022/05/27 00:22:27;;;;;;;8.85;2.78;;;;;;;16.59;74.77;101856.00;5026102;28;20049;-46
2022/05/27 00:25:14;;;;;;;6.75;2.78;;;;;;;16.59;74.55;101861.53;5019625;28;20061;-48
2022/05/27 00:28:02;;;;;;;7.60;2.60;;;;;;;16.60;74.54;101854.94;5015655;28;20046;-48
2022/05/27 00:30:50;;;;;;;6.70;2.58;;;;;;;16.59;74.55;101850.50;5015375;28;20049;-50
2022/05/27 00:33:28;;;;;;;8.95;2.78;;;;;;;16.57;74.54;101858.25;5030317;28;20059;-48
2022/05/27 00:36:15;;;;;;;8.30;2.80;;;;;;;16.52;75.15;101858.25;5035167;28;20041;-48
2022/05/27 00:39:03;;;;;;;10.90;3.00;;;;;;;16.54;75.09;101858.78;5034455;28;20045;-50
2022/05/27 00:41:51;;;;;;;7.90;2.70;;;;;;;16.54;75.55;101853.28;5025373;28;20046;-48
2022/05/27 00:44:38;;;;;;;8.43;2.90;;;;;;;16.58;75.17;101856.31;5017702;28;20053;-48
2022/05/27 00:47:32;;;;;;;11.18;3.20;;;;;;;16.53;75.45;101843.41;5015659;28;20440;-46
2022/05/27 00:50:25;;;;;;;8.95;2.88;;;;;;;16.50;75.62;101852.25;5014279;28;20489;-46
2022/05/27 00:53:23;;;;;;;8.02;2.60;;;;;;;16.52;75.97;101855.50;5020849;28;20052;-46
2022/05/27 00:56:12;;;;;;;9.93;3.58;;;;;;;16.52;76.66;101850.00;5005632;28;20050;-47
2022/05/27 00:59:04;;;;;;;8.50;3.55;;;;;;;16.49;77.72;101856.06;5014709;28;20405;-47
2022/05/27 01:01:52;;;;;;;12.93;3.17;;;;;;;16.47;78.59;101852.78;5013421;28;20046;-48
2022/05/27 01:04:40;;;;;;;9.48;3.20;;;;;;;16.43;79.48;101848.97;5012710;28;20442;-49
2022/05/27 01:07:28;;;;;;;8.20;3.10;;;;;;;16.39;81.14;101842.38;5016429;28;20060;-50
2022/05/27 01:10:17;;;;;;;7.85;3.22;;;;;;;16.31;82.05;101845.72;5019894;28;20506;-48
2022/05/27 01:13:38;;;;;;;12.38;3.25;;;;;;;16.31;82.26;101837.47;5023891;28;20049;-47
2022/05/27 01:16:32;;;;;;;11.18;3.45;;;;;;;16.28;82.67;101835.28;5013643;28;20053;-50
2022/05/27 01:20:20;;;;;;;11.30;3.17;;;;;;;16.28;82.16;101840.78;5026965;28;20108;-47
2022/05/27 01:23:29;;;;;;;10.32;3.35;;;;;;;16.29;83.07;101836.94;5018663;28;20100;-46
2022/05/27 01:26:31;;;;;;;12.20;3.70;;;;;;;16.30;84.71;101844.06;5019805;28;20049;-47
2022/05/27 01:29:30;;;;;;;10.95;3.42;;;;;;;16.29;84.93;101840.50;5033248;28;20050;-46
2022/05/27 01:32:26;;;;;;;9.40;3.60;;;;;;;16.25;86.61;101842.16;5030100;28;20045;-48
2022/05/27 01:35:22;;;;;;;;;;;;;;;16.25;86.03;101844.09;5014529;28;20046;-50
2022/05/27 01:38:29;;;;;;;9.38;3.40;;;;;;;16.21;87.54;101832.00;5014865;28;20315;-48
2022/05/27 01:41:35;;;;;;;8.75;3.38;;;;;;;16.17;87.40;101837.25;5013144;28;20050;-50
2022/05/27 01:44:45;;;;;;;12.32;4.03;;;;;;;16.12;88.55;101840.03;5026796;28;20048;-48
2022/05/27 01:47:43;;;;;;;10.82;3.58;;;;;;;16.11;88.86;101844.69;5014213;28;20057;-48
2022/05/27 01:50:39;;;;;;;9.27;3.15;;;;;;;16.05;89.54;101840.31;5014689;28;20053;-48
2022/05/27 01:53:38;;;;;;;9.85;3.40;;;;;;;16.02;90.55;101845.53;5029901;28;20049;-48
2022/05/27 01:56:34;;;;;;;11.68;3.97;;;;;;;15.96;90.62;101858.47;5023067;28;20049;-48
2022/05/27 01:59:27;;;;;;;;;;;;;;;15.91;91.29;101877.72;5013105;28;20046;-48
2022/05/27 02:02:21;;;;;;;12.77;3.95;;;;;;;15.82;92.54;101884.91;5014453;28;19929;-49
2022/05/27 02:05:13;;;;;;;10.57;4.18;;;;;;;15.74;93.42;101881.59;5000572;28;20424;-48
2022/05/27 02:08:11;;;;;;;8.25;3.20;;;;;;;15.70;93.16;101899.72;5013313;28;20515;-46
2022/05/27 02:11:02;;;;;;;6.38;2.65;;;;;;;15.62;92.28;101881.03;5001841;28;20045;-47
2022/05/27 02:13:57;;;;;;;8.13;2.83;;;;;;;15.58;92.24;101879.94;5013042;28;20038;-47
2022/05/27 02:16:55;;;;;;;5.57;2.07;;;;;;;15.58;91.17;101874.44;5014688;28;20049;-47
2022/05/27 02:19:46;;;;;;;6.72;2.65;;;;;;;15.57;91.08;101877.47;5013094;28;20727;-49
2022/05/27 02:22:38;;;;;;;4.00;2.10;;;;;;;15.57;90.12;101875.56;5013166;28;20050;-46
2022/05/27 02:25:36;;;;;;;7.07;2.28;;;;;;;15.55;90.03;101877.75;5013821;28;20042;-48
2022/05/27 02:28:28;;;;;;;5.15;2.00;;;;;;;15.54;90.47;101874.19;5012896;28;20092;-47
2022/05/27 02:31:20;;;;;;;7.63;2.33;;;;;;;15.55;90.78;101864.00;5010754;28;20052;-50
2022/05/27 02:37:24;;;;;;;6.88;2.42;;;;;;;15.51;91.48;101863.75;5028641;28;20045;-52
2022/05/27 02:40:24;;;;;;;4.70;2.28;;;;;;;15.51;91.62;101855.50;5012508;28;20042;-48
2022/05/27 02:43:46;;;;;;;5.35;2.30;;;;;;;15.55;91.10;101842.03;5012276;28;20064;-47
2022/05/27 02:46:52;;;;;;;6.10;2.05;;;;;;;15.57;91.04;101828.84;5030092;28;20107;-47
2022/05/27 02:49:46;;;;;;;4.60;2.00;;;;;;;15.56;91.04;101832.69;5024170;28;20045;-48
2022/05/27 02:53:18;;;;;;;5.10;2.45;;;;;;;15.58;90.44;101849.72;5013509;28;20076;-45
2022/05/27 02:56:20;;;;;;;5.75;2.25;;;;;;;15.61;90.58;101845.59;5004849;28;20054;-47
2022/05/27 02:59:09;;;;;;;4.05;1.85;;;;;;;15.63;90.78;101843.41;5013193;28;20050;-49
2022/05/27 03:02:07;;;;;;;6.30;2.10;;;;;;;15.63;90.52;101838.72;5012698;28;20057;-49
2022/05/27 03:04:46;;;;;;;4.85;2.17;;;;;;;15.63;90.66;101835.16;4999623;28;20502;-52
2022/05/27 03:07:56;;;;;;;5.43;2.05;;;;;;;15.63;90.05;101841.47;5013632;28;20049;-52
2022/05/27 03:11:13;;;;;;;4.20;1.90;;;;;;;15.62;90.31;101842.56;5014635;28;20041;-52
2022/05/27 03:14:11;;;;;;;3.20;1.73;;;;;;;15.61;90.55;101840.94;5010210;28;20046;-52
2022/05/27 03:17:14;;;;;;;4.70;2.00;;;;;;;15.57;91.02;101847.28;5013329;28;20050;-48
2022/05/27 03:20:10;;;;;;;4.35;2.15;;;;;;;15.57;90.94;101844.53;5014235;28;20041;-49
2022/05/27 03:23:39;;;;;;;5.47;2.15;;;;;;;15.57;91.13;101842.59;5013019;28;20060;-48
2022/05/27 03:26:50;;;;;;;6.28;2.17;;;;;;;15.52;91.10;101842.59;5012490;28;20049;-49
2022/05/27 03:29:51;;;;;;;5.32;2.35;;;;;;;15.50;91.42;101828.31;5024261;28;20033;-49
2022/05/27 03:32:41;;;;;;;7.43;2.42;;;;;;;15.45;91.87;101828.31;5030530;28;20057;-51
2022/05/27 03:35:43;;;;;;;5.88;2.47;;;;;;;15.45;91.75;101833.81;5032752;28;20045;-47
2022/05/27 03:38:41;;;;;;;9.40;2.63;;;;;;;15.46;91.94;101833.53;5029766;28;20057;-49
2022/05/27 03:41:36;;;;;;;5.88;2.53;;;;;;;15.49;92.05;101832.13;5015341;28;20049;-52
2022/05/27 03:44:27;;;;;;;7.53;2.50;;;;;;;15.51;92.15;101832.69;5011583;28;20042;-51
2022/05/27 03:47:14;;;;;;;8.32;2.60;;;;;;;15.51;91.85;101833.53;5012625;28;20046;-52
2022/05/27 03:50:03;;;;;;;8.38;2.97;;;;;;;15.49;92.13;101832.13;5029492;28;20042;-49
2022/05/27 03:52:54;;;;;;;6.38;2.30;;;;;;;15.48;91.69;101834.06;5008107;28;20052;-47
2022/05/27 03:55:44;;;;;;;5.18;2.20;;;;;;;15.44;92.90;101829.41;5016348;28;20046;-49
2022/05/27 03:58:32;;;;;;;7.45;2.67;;;;;;;15.45;93.04;101833.81;5015917;28;20052;-47
2022/05/27 04:01:25;;;;;;;6.25;2.40;;;;;;;15.46;93.24;101832.69;5015887;28;20057;-49
2022/05/27 04:04:14;;;;;;;8.73;2.60;;;;;;;15.47;93.30;101835.19;5015153;28;20465;-49
2022/05/27 04:07:02;;;;;;;7.75;2.50;;;;;;;15.47;93.31;101839.88;5015567;28;20056;-47
2022/05/27 04:09:50;;;;;;;6.00;2.40;;;;;;;15.50;93.06;101833.81;5021028;28;20053;-48
2022/05/27 04:12:37;;;;;;;9.77;2.97;;;;;;;15.49;93.28;101843.13;5035175;28;20049;-48
2022/05/27 04:15:25;;;;;;;6.15;2.47;;;;;;;15.48;93.44;101850.56;5035389;28;20506;-51
2022/05/27 04:18:04;;;;;;;10.77;3.00;;;;;;;15.49;93.50;101854.13;5014783;28;20041;-48
2022/05/27 04:20:51;;;;;;;6.95;2.50;;;;;;;15.51;93.76;101854.66;5015782;28;20825;-46
2022/05/27 04:23:26;;;;;;;7.38;2.53;;;;;;;15.52;93.88;101856.34;5034812;28;20090;-47
2022/05/27 04:26:14;;;;;;;6.45;3.00;;;;;;;15.53;93.69;101844.22;5028173;28;20050;-49
2022/05/27 04:29:02;;;;;;;8.32;2.90;;;;;;;15.53;93.39;101855.22;5001416;28;20512;-48
2022/05/27 04:31:49;;;;;;;9.40;3.33;;;;;;;15.53;93.88;101855.22;5015536;28;20505;-51
2022/05/27 04:34:42;;;;;;;9.02;3.35;;;;;;;15.51;93.79;101862.91;5014775;28;20050;-47
2022/05/27 04:37:30;;;;;;;9.48;3.13;;;;;;;15.49;94.30;101857.72;5001851;28;20073;-49
2022/05/27 04:40:17;;;;;;;9.27;3.30;;;;;;;15.49;94.43;101862.34;5015230;28;20054;-48
2022/05/27 04:43:06;;;;;;;10.65;3.00;;;;;;;15.47;94.58;101856.34;5029959;28;20504;-49
2022/05/27 04:45:54;;;;;;;6.97;2.70;;;;;;;15.50;94.51;101853.03;5033529;28;20054;-48
2022/05/27 04:48:42;;;;;;;8.07;2.95;;;;;;;15.53;94.53;101850.53;5034881;28;20076;-47
2022/05/27 04:51:29;;;;;;;8.80;3.00;;;;;;;15.53;93.96;101856.03;5020104;28;20049;-47
2022/05/27 04:54:17;;;;;;;6.78;2.78;;;;;;;15.54;94.09;101856.88;5016132;28;20519;-48
2022/05/27 04:57:05;;;;;;;8.48;3.05;;;;;;;15.58;94.07;101865.38;5016620;28;20054;-50
2022/05/27 04:59:52;;;;;;;9.40;2.95;;;;;;;15.56;94.11;101873.88;5022134;28;20050;-48
2022/05/27 05:02:42;;;;;;;6.20;2.85;;;;;;;15.56;94.42;101865.66;5018017;28;20045;-47
2022/05/27 05:05:33;;;;;;;9.20;3.25;;;;;;;15.58;94.03;101868.94;5014787;28;20076;-47
2022/05/27 05:08:40;;;;;;;6.97;2.85;;;;;;;15.60;93.93;101864.00;5018604;28;20092;-51
2022/05/27 05:11:28;;;;;;;12.45;3.90;;;;;;;15.63;93.96;101859.88;5029869;28;20053;-48
2022/05/27 05:14:15;;;;;;;10.23;3.65;;;;;;;15.55;95.33;101855.78;5029943;28;20046;-49
2022/05/27 05:17:04;;;;;;;9.32;3.45;;;;;;;15.58;95.32;101870.88;5015206;28;20041;-48
2022/05/27 05:19:55;;;;;;;9.38;3.45;;;;;;;15.59;96.06;101873.34;5016597;28;20057;-51
2022/05/27 05:22:42;;;;;;;10.40;3.85;;;;;;;15.61;96.32;101867.56;5014663;28;20390;-48
2022/05/27 05:25:30;;;;;;;11.05;3.83;;;;;;;15.60;96.35;101877.75;5014493;28;20049;-50
2022/05/27 05:28:18;;;;;;;13.60;4.20;;;;;;;15.60;96.86;101882.41;5013682;28;20061;-49
2022/05/27 05:31:08;;;;;;;12.68;4.05;;;;;;;15.59;97.01;101881.59;5014307;28;20053;-49
2022/05/27 05:33:59;;;;;;;12.40;3.97;;;;;;;15.57;97.92;101883.78;5032981;28;20038;-45
2022/05/27 05:36:47;;;;;;;11.93;4.03;;;;;;;15.56;98.23;101887.63;5030552;28;20467;-48
2022/05/27 05:39:30;;;;;;;14.55;4.75;;;;;;;15.55;98.52;101892.31;5025971;28;20050;-48
2022/05/27 05:42:18;;;;;;;13.18;4.68;;;;;;;15.52;98.94;101897.53;5021637;28;20385;-45
2022/05/27 05:45:07;;;;;;;10.07;4.10;;;;;;;15.52;98.74;101901.09;5020463;28;20386;-49
2022/05/27 05:47:55;;;;;;;14.63;4.97;;;;;;;15.53;98.57;101900.00;5029885;28;20451;-47
2022/05/27 05:50:43;;;;;;;16.92;4.57;;;;;;;15.50;98.33;101907.97;5019344;28;20590;-50
2022/05/27 05:53:32;;;;;;;14.30;4.75;;;;;;;15.50;97.73;101907.97;5013192;28;20061;-49
2022/05/27 05:56:21;;;;;;;16.30;4.50;;;;;;;15.48;97.47;101901.91;5013706;28;20088;-49
2022/05/27 05:59:09;;;;;;;17.48;4.72;;;;;;;15.51;96.91;101909.59;5013772;28;20058;-55
2022/05/27 06:01:57;;;;;;;14.45;4.35;;;;;;;15.49;96.02;101909.06;5013220;28;20046;-49
2022/05/27 06:04:45;;;;;;;13.38;4.43;;;;;;;15.46;94.16;101909.59;5015088;28;20061;-50
2022/05/27 06:07:33;;;;;;;19.95;4.10;;;;;;;15.42;94.17;101911.28;5013537;28;20057;-51
2022/05/27 06:10:21;;;;;;;15.88;4.22;;;;;;;15.42;93.22;101920.34;5032773;28;20514;-51
2022/05/27 06:13:09;;;;;;;13.10;3.65;;;;;;;15.39;91.78;101909.06;5010118;28;20034;-50
2022/05/27 06:15:56;;;;;;;15.40;4.70;;;;;;;15.40;90.78;101917.03;5013969;28;20057;-47
2022/05/27 06:18:46;;;;;;;12.77;4.15;;;;;;;15.39;89.33;101909.06;5013615;28;20050;-47
2022/05/27 06:21:33;;;;;;;12.68;3.67;;;;;;;15.38;88.73;101923.91;5009534;28;20052;-49
2022/05/27 06:24:21;;;;;;;13.15;3.80;;;;;;;15.42;89.55;101917.59;5013562;28;20058;-49
2022/05/27 06:27:09;;;;;;;12.60;4.07;;;;;;;15.43;87.27;101929.38;5012428;28;20060;-50
2022/05/27 06:36:08;;;;;;;13.55;3.67;;;;;;;15.23;83.39;101935.69;5033062;28;20389;-51
2022/05/27 06:38:56;;;;;;;14.45;3.83;;;;;;;15.31;82.96;101940.63;5033304;28;20046;-47
2022/05/27 06:41:44;;;;;;;17.20;3.90;;;;;;;15.32;81.96;101932.13;5026434;28;20041;-50
2022/05/27 06:44:32;;;;;;;10.27;3.20;;;;;;;15.32;81.80;101932.13;5013318;28;20502;-58
2022/05/27 06:47:19;;;;;;;12.20;3.45;;;;;;;15.30;79.67;101934.31;5014585;28;20057;-52
2022/05/27 06:50:08;;;;;;;11.57;3.40;;;;;;;15.28;79.31;101927.47;5014123;28;20050;-53
2022/05/27 06:52:56;;;;;;;11.68;3.38;;;;;;;15.34;78.29;101924.44;5013677;28;20038;-53
2022/05/27 06:55:48;;;;;;;11.18;3.75;;;;;;;15.38;77.86;101940.38;5022237;28;20503;-49
2022/05/27 06:58:42;;;;;;;15.43;3.47;;;;;;;15.41;76.86;101937.88;5013256;28;20493;-53
2022/05/27 07:01:30;;;;;;;14.05;3.88;;;;;;;15.36;74.09;101945.31;5015831;28;20048;-55
2022/05/27 07:04:18;;;;;;;15.70;3.40;;;;;;;15.34;73.30;101940.94;5032695;28;20050;-47
2022/05/27 07:07:06;;;;;;;14.65;3.63;;;;;;;15.30;73.59;101950.81;5027477;28;20386;-54
2022/05/27 07:09:53;;;;;;;14.52;3.83;;;;;;;15.30;71.44;101944.50;5012915;28;20046;-47
2022/05/27 07:12:41;;;;;;;18.13;4.20;;;;;;;15.30;70.90;101949.97;5019738;28;20049;-51
2022/05/27 07:15:32;;;;;;;12.75;3.30;;;;;;;15.31;71.01;101954.38;5031909;28;20049;-49
2022/05/27 07:18:20;;;;;;;14.52;3.72;;;;;;;15.28;69.23;101952.16;5013418;28;20504;-47
2022/05/27 07:21:07;;;;;;;13.07;3.88;;;;;;;15.25;67.99;101964.53;5012705;28;20488;-47
2022/05/27 07:23:56;;;;;;;14.43;3.83;;;;;;;15.29;68.39;101960.13;5032905;28;20048;-50
2022/05/27 07:26:45;;;;;;;18.70;4.10;;;;;;;15.33;68.34;101958.47;5031306;28;20128;-46
2022/05/27 07:29:33;;;;;;;15.93;3.78;;;;;;;15.37;67.90;101949.69;5022520;28;20045;-47
2022/05/27 07:32:20;;;;;;;18.52;4.20;;;;;;;15.29;66.20;101965.59;5017151;28;20057;-48
2022/05/27 07:35:08;;;;;;;13.25;3.70;;;;;;;15.25;65.17;101959.03;5014059;28;20050;-47
2022/05/27 07:37:56;;;;;;;12.95;4.10;;;;;;;15.37;66.41;101968.91;5017874;28;20050;-47
2022/05/27 07:40:44;;;;;;;14.40;3.30;;;;;;;15.37;65.37;101966.16;5017609;28;20126;-49
2022/05/27 07:43:32;;;;;;;14.85;4.10;;;;;;;15.44;65.52;101972.22;5016988;28;20164;-50
2022/05/27 07:46:22;;;;;;;12.93;3.65;;;;;;;15.46;64.52;101964.53;5018029;28;20049;-46
2022/05/27 07:49:10;;;;;;;12.70;3.60;;;;;;;15.53;63.58;101967.84;5015489;28;20042;-48
2022/05/27 07:52:17;;;;;;;17.83;4.28;;;;;;;15.53;63.60;101976.09;5019719;28;20099;-47
2022/05/27 07:55:06;;;;;;;14.85;4.28;;;;;;;15.52;64.59;101971.69;5035928;28;20063;-46
2022/05/27 07:57:53;;;;;;;14.50;3.45;;;;;;;15.53;66.25;101979.66;5034870;28;20399;-47
2022/05/27 08:00:41;;;;;;;13.60;3.67;;;;;;;15.57;66.31;101976.38;5034433;28;20054;-48
2022/05/27 08:03:18;;;;;;;11.13;3.47;;;;;;;15.59;66.13;101974.19;5035105;28;20049;-48
2022/05/27 08:06:05;;;;;;;13.32;3.95;;;;;;;15.58;66.33;101978.84;5036025;28;20064;-49
2022/05/27 08:08:53;;;;;;;18.15;3.83;;;;;;;15.59;66.96;101987.91;5016406;28;20116;-46
2022/05/27 08:11:39;;;;;;;12.57;3.78;;;;;;;15.65;67.30;101979.38;5018498;28;20038;-49
2022/05/27 08:14:26;;;;;;;15.60;3.72;;;;;;;15.70;66.46;101982.16;5019248;28;20038;-45
2022/05/27 08:17:15;;;;;;;16.80;4.25;;;;;;;15.73;66.59;101981.63;5002670;28;20033;-46
2022/05/27 08:20:04;;;;;;;17.10;4.45;;;;;;;15.76;66.28;101989.31;5017238;28;20042;-46
2022/05/27 08:22:53;;;;;;;14.35;4.05;;;;;;;15.76;64.08;101983.00;5021424;28;20033;-52
2022/05/27 08:25:41;;;;;;;13.30;3.72;;;;;;;15.74;62.44;101991.53;5014960;28;20057;-47
2022/05/27 08:28:29;;;;;;;18.02;3.90;;;;;;;15.75;63.09;101982.19;5015532;28;20501;-47
2022/05/27 08:31:17;;;;;;;13.02;4.20;;;;;;;15.79;63.27;101990.69;5014576;28;20049;-50
2022/05/27 08:40:42;;;;;;;14.50;4.25;;;;;;;15.75;64.91;101995.09;5018546;28;20402;-47
2022/05/27 08:43:48;;;;;;;13.57;3.80;;;;;;;15.67;64.78;101988.19;5035238;28;20550;-48
2022/05/27 08:46:56;;;;;;;18.17;4.05;;;;;;;15.62;64.02;101999.19;5032635;28;20045;-53
2022/05/27 08:49:51;;;;;;;15.57;4.03;;;;;;;15.56;62.71;102011.25;5032422;28;20045;-49
2022/05/27 08:52:43;;;;;;;14.45;4.10;;;;;;;15.59;62.04;102002.47;5015355;28;20489;-50
2022/05/27 09:02:35;;;;;;;16.25;4.22;;;;;;;15.67;56.55;102010.16;5034053;28;20152;-49
2022/05/27 09:05:29;;;;;;;;;;;;;;;15.68;56.16;102017.34;5033758;28;20054;-49
2022/05/27 09:08:22;;;;;;;18.67;5.10;;;;;;;15.64;56.57;102016.22;5035164;28;19921;-46
2022/05/27 09:11:27;;;;;;;15.98;4.90;;;;;;;15.66;56.03;102024.19;5033558;28;20053;-53
2022/05/27 09:14:22;;;;;;;16.83;4.95;;;;;;;15.73;56.36;102022.03;5034551;28;20054;-53
2022/05/27 09:17:15;;;;;;;20.37;4.70;;;;;;;15.85;56.79;102016.25;5022294;28;20050;-54
2022/05/27 09:20:17;;;;;;;18.90;5.10;;;;;;;15.91;57.27;102005.00;5014910;28;20659;-53
2022/05/27 09:23:28;;;;;;;15.90;5.10;;;;;;;16.00;57.39;102016.28;5014040;28;20519;-54
2022/05/27 09:26:44;;;;;;;22.92;5.32;;;;;;;15.91;57.33;102013.22;5014928;28;20128;-55
2022/05/27 09:29:44;;;;;;;;;;;;;;;15.94;56.74;102014.59;5033422;28;20061;-52
2022/05/27 09:32:47;;;;;;;16.13;4.30;;;;;;;15.94;56.52;102017.34;5017536;28;19921;-52
2022/05/27 09:36:05;;;;;;;16.08;4.30;;;;;;;15.89;57.30;102031.91;5034341;28;20046;-49
2022/05/27 09:39:02;;;;;;;17.08;4.30;;;;;;;15.95;57.92;102006.09;5014274;28;20049;-54
2022/05/27 09:42:17;;;;;;;14.25;4.47;;;;;;;16.09;57.02;102025.63;5029326;28;20049;-53
2022/05/27 09:45:06;;;;;;;16.23;4.38;;;;;;;16.16;54.83;102037.16;5025444;28;20065;-54
2022/05/27 09:47:59;;;;;;;15.40;3.88;;;;;;;16.19;55.47;102022.84;5014931;28;20061;-53
2022/05/27 09:50:48;;;;;;;17.00;4.40;;;;;;;16.22;55.63;102015.16;5012511;28;20394;-54
2022/05/27 09:53:42;;;;;;;18.13;4.05;;;;;;;16.23;55.56;102022.28;5025477;28;20045;-53
2022/05/27 09:56:58;;;;;;;15.73;4.40;;;;;;;16.23;54.87;102034.09;5023047;28;20041;-54
2022/05/27 09:59:53;;;;;;;13.98;3.53;;;;;;;16.25;55.98;102020.91;5028837;28;20416;-53
2022/05/27 10:02:42;;;;;;;17.73;4.55;;;;;;;16.38;55.07;102025.03;5032800;28;20049;-52
2022/05/27 10:05:32;;;;;;;15.20;4.50;;;;;;;16.38;55.24;102025.03;5027615;28;20520;-51
2022/05/27 10:08:36;;;;;;;16.02;4.00;;;;;;;16.30;55.82;102033.84;5013348;28;20052;-51
2022/05/27 10:11:26;;;;;;;17.95;4.95;;;;;;;16.21;57.06;102024.50;5012924;28;20353;-52
2022/05/27 10:14:24;;;;;;;17.65;4.32;;;;;;;16.25;56.63;102022.84;5028173;28;20507;-52
2022/05/27 10:17:14;;;;;;;15.43;4.10;;;;;;;16.29;55.04;102030.25;5015831;28;20034;-53
2022/05/27 10:20:17;;;;;;;11.82;4.05;;;;;;;16.38;54.75;102033.28;5014012;28;20054;-49
2022/05/27 10:23:08;;;;;;;13.60;4.07;;;;;;;16.37;55.26;102045.38;5014661;28;20049;-53
2022/05/27 10:25:56;;;;;;;14.20;4.03;;;;;;;16.48;53.77;102032.44;5014017;28;20053;-50
2022/05/27 10:28:43;;;;;;;18.73;4.20;;;;;;;16.49;51.61;102023.91;5018107;28;20559;-53
2022/05/27 10:31:31;;;;;;;14.20;4.10;;;;;;;16.57;51.40;102036.25;5013973;28;20144;-55
2022/05/27 10:34:46;;;;;;;16.08;4.35;;;;;;;16.65;50.92;102026.63;4370910;28;10002645;-54
2022/05/27 10:37:50;;;;;;;20.55;4.70;;;;;;;16.65;51.54;102045.88;5012816;28;20293;-55
2022/05/27 10:40:44;;;;;;;18.77;4.28;;;;;;;16.66;51.28;102042.84;5029320;28;20057;-53
2022/05/27 10:43:50;;;;;;;12.30;4.40;;;;;;;16.72;50.96;102040.91;5026452;28;20053;-55
2022/05/27 10:46:47;;;;;;;20.33;5.20;;;;;;;16.64;49.88;102045.03;5030229;28;20053;-54
2022/05/27 10:49:44;;;;;;;14.65;4.70;;;;;;;16.44;50.87;102040.41;5014246;28;20614;-53
2022/05/27 10:53:03;;;;;;;17.98;4.10;;;;;;;16.36;50.46;102032.75;4997139;28;20057;-55
2022/05/27 10:55:57;;;;;;;17.55;4.40;;;;;;;16.50;49.34;102042.06;5012769;28;20057;-52
2022/05/27 11:02:15;;;;;;;14.80;4.80;;;;;;;16.77;48.02;102071.19;5010067;28;20507;-54
2022/05/27 11:05:31;;;;;;;16.38;4.40;;;;;;;16.79;49.93;102038.72;5003282;28;20499;-53
2022/05/27 11:08:21;;;;;;;19.27;4.72;;;;;;;16.80;49.99;102041.19;5011673;28;20041;-54
2022/05/27 11:11:44;;;;;;;17.38;4.80;;;;;;;16.60;47.83;102061.31;5018261;28;20065;-49
2022/05/27 11:18:05;;;;;;;16.02;4.90;;;;;;;16.25;49.72;102050.34;5026573;28;20150;-51
2022/05/27 11:21:07;;;;;;;17.88;4.65;;;;;;;16.28;48.62;102052.53;5026249;28;20050;-51
2022/05/27 11:24:32;;;;;;;15.30;4.63;;;;;;;16.40;49.32;102051.16;5027037;28;20057;-50
2022/05/27 11:27:57;;;;;;;17.38;4.70;;;;;;;16.55;49.17;102039.31;5029155;28;20119;-51
2022/05/27 11:31:11;;;;;;;15.75;4.28;;;;;;;16.73;50.47;102043.38;5027793;28;20053;-47
2022/05/27 11:34:02;;;;;;;13.48;3.90;;;;;;;16.88;46.57;102045.28;5020506;28;20128;-50
2022/05/27 11:37:06;;;;;;;13.93;4.60;;;;;;;16.84;44.89;102049.72;5009484;28;20065;-49
2022/05/27 11:40:15;;;;;;;16.40;4.13;;;;;;;16.81;46.04;102055.75;5009599;28;20049;-49
2022/05/27 11:43:14;;;;;;;18.10;4.45;;;;;;;16.83;46.71;102054.38;5019066;28;20058;-47
2022/05/27 11:46:17;;;;;;;14.73;3.70;;;;;;;16.90;45.29;102054.09;5027667;28;20052;-50
2022/05/27 11:49:20;;;;;;;17.02;3.90;;;;;;;16.79;43.64;102058.00;5029528;28;20054;-50
2022/05/27 11:52:15;;;;;;;14.43;3.92;;;;;;;16.76;43.47;102075.00;5027006;28;20041;-52
2022/05/27 11:55:27;;;;;;;11.20;3.45;;;;;;;16.77;42.50;102058.22;5009921;28;20057;-52
2022/05/27 11:58:13;;;;;;;16.10;4.03;;;;;;;16.87;44.19;102060.16;5011295;28;20046;-48
2022/05/27 12:01:08;;;;;;;19.45;4.30;;;;;;;16.92;45.42;102062.06;5012225;28;20125;-51
2022/05/27 12:04:15;;;;;;;11.23;3.65;;;;;;;16.85;45.73;102054.09;5012437;28;20115;-50
2022/05/27 12:07:29;;;;;;;19.95;4.10;;;;;;;16.90;45.18;102054.09;5012348;28;20124;-50
2022/05/27 12:10:24;;;;;;;17.65;4.15;;;;;;;16.82;45.24;102072.00;5017748;28;20484;-54
2022/05/27 12:13:29;;;;;;;16.52;4.47;;;;;;;16.93;45.22;102049.94;5020395;28;20053;-49
2022/05/27 12:16:28;;;;;;;13.70;3.88;;;;;;;16.94;44.62;102059.88;5015553;28;20481;-52
2022/05/27 12:19:29;;;;;;;19.77;4.65;;;;;;;16.83;46.15;102062.63;5016215;28;20463;-51
2022/05/27 12:22:22;;;;;;;15.05;4.53;;;;;;;16.67;47.73;102060.16;5013180;28;20058;-50
2022/05/27 12:25:22;;;;;;;20.58;5.10;;;;;;;16.76;49.63;102064.00;5016029;28;20050;-52
2022/05/27 12:28:10;;;;;;;20.60;5.28;;;;;;;16.66;50.74;102059.34;5015319;28;20072;-51
2022/05/27 12:30:59;;;;;;;18.40;4.38;;;;;;;16.66;50.08;102070.38;5016678;28;20049;-50
2022/05/27 12:33:47;;;;;;;18.30;4.85;;;;;;;16.73;48.58;102059.06;5015047;28;20108;-50
2022/05/27 12:36:36;;;;;;;15.00;4.38;;;;;;;16.89;49.49;102057.13;5014873;28;20050;-50
2022/05/27 12:39:26;;;;;;;16.17;5.05;;;;;;;16.98;50.32;102056.28;5015836;28;20513;-49
2022/05/27 12:42:24;;;;;;;18.73;5.18;;;;;;;16.92;50.27;102043.63;5016299;28;20064;-52
2022/05/27 12:45:45;;;;;;;21.48;6.20;;;;;;;16.90;49.92;102072.53;5015727;28;20042;-50
2022/05/27 12:48:40;;;;;;;17.90;5.40;;;;;;;16.71;50.09;102069.53;5015948;28;20060;-49
2022/05/27 12:51:31;;;;;;;22.70;5.17;;;;;;;16.67;50.25;102071.19;5015494;28;20046;-50
2022/05/27 12:54:45;;;;;;;17.52;5.32;;;;;;;16.58;50.94;102074.50;5015158;28;20425;-48
2022/05/27 13:01:03;;;;;;;23.00;4.85;;;;;;;16.55;50.70;102072.31;5015255;28;20053;-49
2022/05/27 13:03:52;;;;;;;16.10;4.05;;;;;;;16.74;48.46;102071.72;5014282;28;20520;-49
2022/05/27 13:06:41;;;;;;;20.95;5.55;;;;;;;16.75;48.87;102079.69;5015762;28;20394;-49
2022/05/27 13:09:46;;;;;;;22.17;5.13;;;;;;;16.74;51.05;102077.22;5017974;28;20112;-48
2022/05/27 13:12:49;;;;;;;18.08;5.35;;;;;;;16.72;48.55;102091.28;5023131;28;20042;-52
2022/05/27 13:15:53;;;;;;;20.23;4.93;;;;;;;16.65;48.85;102084.41;5015183;28;20471;-53
2022/05/27 13:18:52;;;;;;;17.40;5.15;;;;;;;16.59;46.46;102081.66;5010760;28;20112;-47
2022/05/27 13:22:03;;;;;;;17.95;4.93;;;;;;;16.61;46.94;102090.47;5011524;28;20420;-50
2022/05/27 13:24:52;;;;;;;17.20;4.40;;;;;;;16.72;46.30;102079.44;5014821;28;20104;-50
2022/05/27 13:27:41;;;;;;;13.25;3.97;;;;;;;16.80;46.66;102092.66;5014816;28;20136;-53
2022/05/27 13:31:06;;;;;;;13.63;4.82;;;;;;;16.85;44.42;102095.41;5014674;28;20054;-50
2022/05/27 13:34:14;;;;;;;15.20;3.90;;;;;;;16.85;42.83;102091.81;5010196;28;20050;-48
2022/05/27 13:37:05;;;;;;;12.15;3.90;;;;;;;16.72;41.82;102099.53;5013715;28;20042;-47
2022/05/27 13:39:56;;;;;;;17.25;4.45;;;;;;;16.66;42.93;102097.88;5013866;28;20052;-49
2022/05/27 13:42:32;;;;;;;16.13;4.38;;;;;;;16.66;43.60;102091.56;4998626;28;20041;-50
2022/05/27 13:45:28;;;;;;;12.20;3.58;;;;;;;16.77;43.38;102104.22;5016501;28;20050;-49
2022/05/27 13:48:32;;;;;;;14.90;4.38;;;;;;;16.82;43.87;102101.47;5030995;28;20508;-49
2022/05/27 13:51:24;;;;;;;16.13;3.83;;;;;;;16.68;43.61;102100.38;5034284;28;20053;-51
2022/05/27 13:53:54;;;;;;;16.23;4.07;;;;;;;16.63;43.85;102103.94;5002437;28;20508;-53
2022/05/27 13:56:47;;;;;;;12.65;3.55;;;;;;;16.70;43.49;102114.69;5026371;28;20052;-52
2022/05/27 13:59:42;;;;;;;15.23;3.10;;;;;;;16.64;43.16;102113.03;4996632;28;20045;-51